createdAt,value
2018-12-25T00:00:17.464Z,5.60
2018-12-25T00:02:45.104Z,4.47
2018-12-25T00:05:12.730Z,5.27
2018-12-25T00:07:40.349Z,5.60
2018-12-25T00:10:08.046Z,3.93
2018-12-25T00:12:35.651Z,4.97
2018-12-25T00:15:03.334Z,5.47
2018-12-25T00:17:30.806Z,5.47
2018-12-25T00:19:58.427Z,5.43
2018-12-25T00:22:25.930Z,4.83
2018-12-25T00:24:53.408Z,5.30
2018-12-25T00:27:20.946Z,4.17
2018-12-25T00:29:48.466Z,6.20
2018-12-25T00:32:15.967Z,5.00
2018-12-25T00:34:43.532Z,9.83
2018-12-25T00:37:11.214Z,5.20
2018-12-25T00:39:39.046Z,4.77
2018-12-25T00:42:09.048Z,4.87
2018-12-25T00:44:36.594Z,5.13
2018-12-25T00:47:05.465Z,6.30
2018-12-25T00:49:49.439Z,4.57
2018-12-25T00:52:05.063Z,5.50
2018-12-25T00:54:32.582Z,5.40
2018-12-25T00:57:02.026Z,4.67
2018-12-25T00:59:29.537Z,4.33
2018-12-25T01:01:57.074Z,4.90
2018-12-25T01:04:27.913Z,5.53
2018-12-25T01:06:55.410Z,4.60
2018-12-25T01:09:23.030Z,4.80
2018-12-25T01:11:50.614Z,4.20
2018-12-25T01:14:24.276Z,4.90
2018-12-25T01:16:51.794Z,5.00
2018-12-25T01:19:23.290Z,4.63
2018-12-25T01:21:49.342Z,4.70
2018-12-25T01:24:16.886Z,5.87
2018-12-25T01:26:44.530Z,6.17
2018-12-25T01:29:12.067Z,8.50
2018-12-25T01:32:00.163Z,5.57
2018-12-25T01:34:28.053Z,4.47
2018-12-25T01:37:03.030Z,4.20
2018-12-25T01:39:30.622Z,4.50
2018-12-25T01:41:58.147Z,4.63
2018-12-25T01:44:26.849Z,4.93
2018-12-25T01:46:54.426Z,4.27
2018-12-25T01:49:21.938Z,3.37
2018-12-25T01:51:49.441Z,4.40
2018-12-25T01:54:17.369Z,4.30
2018-12-25T01:56:44.885Z,4.77
2018-12-25T01:59:12.490Z,4.23
2018-12-25T02:01:40.046Z,4.63
2018-12-25T02:04:07.558Z,3.37
2018-12-25T02:06:35.142Z,3.53
2018-12-25T02:09:03.158Z,4.17
2018-12-25T02:11:30.641Z,3.70
2018-12-25T02:13:58.146Z,3.27
2018-12-25T02:16:25.701Z,3.80
2018-12-25T02:18:53.228Z,3.63
2018-12-25T02:21:20.734Z,3.33
2018-12-25T02:23:48.272Z,3.73
2018-12-25T02:26:15.775Z,3.77
2018-12-25T02:28:43.278Z,3.90
2018-12-25T02:31:10.830Z,3.60
2018-12-25T02:33:38.313Z,3.73
2018-12-25T02:36:05.844Z,3.37
2018-12-25T02:38:33.381Z,4.13
2018-12-25T02:41:01.022Z,3.20
2018-12-25T02:43:29.069Z,3.87
2018-12-25T02:45:56.997Z,3.90
2018-12-25T02:48:44.044Z,4.37
2018-12-25T02:51:14.604Z,3.13
2018-12-25T02:53:42.116Z,3.23
2018-12-25T02:56:09.658Z,4.07
2018-12-25T02:58:37.212Z,3.50
2018-12-25T03:01:04.838Z,2.87
2018-12-25T03:03:32.358Z,2.70
2018-12-25T03:06:00.004Z,2.53
2018-12-25T03:08:27.595Z,3.13
2018-12-25T03:10:55.083Z,3.40
2018-12-25T03:13:23.870Z,2.93
2018-12-25T03:15:51.354Z,2.70
2018-12-25T03:18:18.877Z,3.00
2018-12-25T03:20:46.432Z,2.83
2018-12-25T03:23:13.917Z,2.97
2018-12-25T03:25:41.420Z,2.53
2018-12-25T03:28:09.081Z,2.77
2018-12-25T03:30:36.557Z,2.90
2018-12-25T03:33:04.063Z,2.87
2018-12-25T03:35:31.674Z,2.70
2018-12-25T03:37:59.270Z,3.20
2018-12-25T03:40:28.622Z,3.23
2018-12-25T03:42:56.142Z,3.47
2018-12-25T03:45:24.110Z,3.30
2018-12-25T03:47:51.963Z,3.00
2018-12-25T03:50:19.521Z,3.30
2018-12-25T03:52:47.092Z,3.60
2018-12-25T03:55:14.595Z,3.40
2018-12-25T03:57:42.098Z,3.30
2018-12-25T04:00:09.600Z,3.23
2018-12-25T04:02:37.104Z,3.90
2018-12-25T04:05:04.694Z,4.00
2018-12-25T04:07:46.005Z,4.10
2018-12-25T04:10:13.447Z,3.07
2018-12-25T04:12:47.324Z,3.37
2018-12-25T04:15:14.842Z,4.33
2018-12-25T04:17:42.398Z,4.60
2018-12-25T04:20:19.510Z,4.63
2018-12-25T04:22:39.311Z,4.97
2018-12-25T04:25:06.845Z,4.40
2018-12-25T04:27:34.335Z,4.63
2018-12-25T04:30:01.826Z,4.67
2018-12-25T04:32:29.366Z,2.90
2018-12-25T04:34:56.853Z,4.30
2018-12-25T04:37:24.370Z,3.63
2018-12-25T04:39:51.898Z,3.63
2018-12-25T04:42:19.390Z,3.80
2018-12-25T04:44:46.877Z,6.03
2018-12-25T04:47:14.429Z,5.90
2018-12-25T04:49:41.933Z,5.87
2018-12-25T04:52:09.441Z,5.13
2018-12-25T04:54:36.997Z,5.63
2018-12-25T04:57:04.506Z,4.17
2018-12-25T04:59:31.998Z,3.90
2018-12-25T05:01:59.530Z,3.90
2018-12-25T05:04:27.234Z,3.90
2018-12-25T05:06:54.738Z,4.40
2018-12-25T05:09:22.275Z,5.80
2018-12-25T05:11:49.772Z,6.20
2018-12-25T05:14:17.287Z,5.73
2018-12-25T05:16:44.826Z,6.27
2018-12-25T05:19:12.326Z,5.73
2018-12-25T05:21:39.822Z,5.83
2018-12-25T05:24:07.350Z,6.63
2018-12-25T05:26:34.835Z,6.20
2018-12-25T05:29:02.331Z,7.87
2018-12-25T05:31:29.873Z,10.90
2018-12-25T05:33:57.386Z,11.33
2018-12-25T05:36:24.866Z,11.03
2018-12-25T05:38:52.433Z,9.03
2018-12-25T05:41:20.002Z,10.30
2018-12-25T05:43:47.432Z,10.30
2018-12-25T05:46:15.377Z,9.60
2018-12-25T05:48:42.869Z,10.20
2018-12-25T05:51:10.358Z,10.03
2018-12-25T05:53:37.907Z,9.10
2018-12-25T05:56:05.420Z,7.77
2018-12-25T05:58:32.906Z,7.33
2018-12-25T06:01:00.667Z,6.80
2018-12-25T06:03:28.145Z,7.00
2018-12-25T06:05:55.646Z,8.37
2018-12-25T06:08:23.181Z,8.53
2018-12-25T06:10:50.662Z,9.07
2018-12-25T06:13:18.170Z,8.03
2018-12-25T06:15:45.685Z,8.10
2018-12-25T06:18:13.219Z,7.47
2018-12-25T06:20:40.722Z,7.50
2018-12-25T06:23:08.258Z,7.73
2018-12-25T06:25:35.743Z,7.37
2018-12-25T06:28:03.258Z,8.03
2018-12-25T06:30:30.783Z,8.03
2018-12-25T06:32:58.292Z,7.73
2018-12-25T06:35:25.786Z,7.30
2018-12-25T06:37:53.333Z,8.23
2018-12-25T06:40:20.824Z,8.03
2018-12-25T06:42:48.318Z,7.87
2018-12-25T06:45:15.886Z,8.47
2018-12-25T06:47:43.363Z,8.20
2018-12-25T06:50:10.862Z,7.60
2018-12-25T06:52:38.414Z,8.30
2018-12-25T06:55:05.948Z,8.57
2018-12-25T06:57:33.524Z,7.87
2018-12-25T07:00:01.148Z,8.57
2018-12-25T07:02:28.718Z,8.57
2018-12-25T07:05:04.782Z,8.10
2018-12-25T07:07:32.277Z,9.67
2018-12-25T07:09:59.785Z,10.17
2018-12-25T07:12:27.362Z,9.53
2018-12-25T07:14:54.880Z,10.37
2018-12-25T07:17:22.381Z,10.93
2018-12-25T07:19:50.031Z,11.10
2018-12-25T07:22:17.533Z,11.40
2018-12-25T07:24:45.037Z,14.97
2018-12-25T07:27:12.677Z,12.70
2018-12-25T07:29:40.260Z,12.20
2018-12-25T07:32:07.777Z,13.13
2018-12-25T07:34:35.350Z,14.77
2018-12-25T07:37:02.874Z,12.23
2018-12-25T07:39:30.522Z,13.60
2018-12-25T07:41:58.019Z,14.47
2018-12-25T07:44:25.504Z,16.73
2018-12-25T07:46:53.032Z,16.43
2018-12-25T07:49:20.524Z,18.27
2018-12-25T07:51:48.077Z,15.60
2018-12-25T07:54:15.660Z,15.17
2018-12-25T07:56:43.159Z,13.77
2018-12-25T07:59:10.669Z,14.90
2018-12-25T08:01:38.967Z,16.33
2018-12-25T08:04:06.440Z,17.67
2018-12-25T08:06:33.942Z,18.97
2018-12-25T08:09:01.468Z,18.53
2018-12-25T08:11:32.090Z,18.47
2018-12-25T08:14:01.092Z,17.07
2018-12-25T08:17:00.709Z,18.60
2018-12-25T08:19:28.258Z,18.47
2018-12-25T08:21:55.792Z,15.93
2018-12-25T08:24:50.650Z,15.00
2018-12-25T08:27:29.042Z,15.87
2018-12-25T08:36:42.010Z,20.73
2018-12-25T08:39:44.580Z,18.27
2018-12-25T08:42:36.078Z,17.40
2018-12-25T08:45:07.786Z,16.23
2018-12-25T08:47:42.894Z,15.07
2018-12-25T08:50:14.929Z,16.27
2018-12-25T08:57:09.195Z,17.60
2018-12-25T09:06:23.587Z,22.57
2018-12-25T09:09:23.374Z,17.53
2018-12-25T09:12:19.515Z,16.60
2018-12-25T09:14:52.952Z,16.17
2018-12-25T09:17:20.582Z,14.83
2018-12-25T09:19:48.142Z,16.40
2018-12-25T09:22:15.760Z,18.43
2018-12-25T09:24:43.307Z,17.83
2018-12-25T09:27:10.970Z,18.93
2018-12-25T09:29:39.368Z,19.77
2018-12-25T09:32:06.888Z,16.53
2018-12-25T09:34:34.434Z,15.20
2018-12-25T09:37:02.034Z,19.80
2018-12-25T09:39:29.588Z,18.80
2018-12-25T09:41:57.100Z,18.83
2018-12-25T09:44:24.610Z,17.57
2018-12-25T09:46:52.152Z,19.13
2018-12-25T09:49:19.703Z,21.43
2018-12-25T09:51:54.388Z,27.40
2018-12-25T09:54:16.905Z,17.37
2018-12-25T09:56:48.512Z,16.77
2018-12-25T09:59:16.329Z,17.57
2018-12-25T10:01:43.847Z,17.63
2018-12-25T10:04:11.356Z,17.47
2018-12-25T10:06:39.010Z,18.17
2018-12-25T10:09:07.596Z,16.50
2018-12-25T10:11:35.172Z,16.20
2018-12-25T10:14:02.674Z,17.77
2018-12-25T10:16:30.290Z,16.40
2018-12-25T10:18:57.841Z,16.00
2018-12-25T10:21:25.490Z,14.60
2018-12-25T10:23:53.060Z,16.33
2018-12-25T10:26:20.600Z,17.23
2018-12-25T10:28:48.297Z,17.57
2018-12-25T10:31:17.756Z,15.03
2018-12-25T10:33:45.316Z,17.97
2018-12-25T10:36:12.967Z,17.70
2018-12-25T10:38:40.601Z,16.50
2018-12-25T10:41:08.168Z,20.33
2018-12-25T10:43:35.817Z,19.47
2018-12-25T10:46:03.352Z,17.00
2018-12-25T10:48:30.890Z,25.10
2018-12-25T10:50:58.532Z,23.17
2018-12-25T10:53:26.058Z,40.87
2018-12-25T10:55:53.788Z,27.57
2018-12-25T10:58:23.259Z,27.13
2018-12-25T11:00:55.033Z,25.33
2018-12-25T11:03:22.603Z,21.63
2018-12-25T11:05:50.246Z,19.47
2018-12-25T11:08:18.013Z,18.07
2018-12-25T11:10:45.562Z,19.20
2018-12-25T11:13:13.137Z,21.13
2018-12-25T11:15:40.664Z,19.90
2018-12-25T11:18:08.210Z,18.73
2018-12-25T11:20:38.348Z,16.83
2018-12-25T11:23:05.865Z,19.70
2018-12-25T11:25:33.458Z,16.90
2018-12-25T11:28:01.032Z,17.87
2018-12-25T11:30:28.568Z,20.53
2018-12-25T11:32:56.100Z,19.03
2018-12-25T11:35:23.694Z,21.93
2018-12-25T11:37:51.244Z,23.13
2018-12-25T11:40:18.818Z,20.43
2018-12-25T11:42:46.302Z,22.27
2018-12-25T11:45:15.084Z,21.70
2018-12-25T11:47:42.680Z,23.27
2018-12-25T11:50:10.358Z,21.00
2018-12-25T11:52:37.886Z,20.33
2018-12-25T11:55:05.474Z,23.90
2018-12-25T11:57:33.144Z,22.90
2018-12-25T12:00:00.653Z,24.03
2018-12-25T12:02:28.199Z,26.03
2018-12-25T12:04:55.735Z,32.13
2018-12-25T12:07:23.230Z,22.13
2018-12-25T12:09:50.796Z,19.47
2018-12-25T12:12:18.306Z,19.23
2018-12-25T12:14:45.798Z,19.60
2018-12-25T12:17:13.356Z,21.50
2018-12-25T12:19:40.840Z,26.33
2018-12-25T12:22:08.386Z,21.53
2018-12-25T12:24:36.206Z,19.40
2018-12-25T12:27:03.698Z,24.30
2018-12-25T12:29:31.229Z,30.50
2018-12-25T12:31:58.794Z,24.93
2018-12-25T12:34:26.332Z,24.37
2018-12-25T12:36:53.814Z,30.57
2018-12-25T12:39:21.397Z,23.57
2018-12-25T12:41:48.896Z,27.03
2018-12-25T12:44:16.472Z,33.40
2018-12-25T12:46:44.093Z,25.13
2018-12-25T12:49:11.605Z,24.13
2018-12-25T12:51:39.089Z,23.10
2018-12-25T12:54:06.694Z,25.03
2018-12-25T12:56:34.474Z,25.87
2018-12-25T12:59:01.983Z,28.20
2018-12-25T13:01:29.540Z,31.73
2018-12-25T13:03:57.056Z,23.93
2018-12-25T13:06:24.551Z,30.87
2018-12-25T13:08:52.110Z,29.30
2018-12-25T13:11:19.617Z,28.00
2018-12-25T13:13:47.142Z,21.27
2018-12-25T13:16:14.697Z,20.87
2018-12-25T13:18:42.206Z,21.93
2018-12-25T13:21:09.725Z,23.83
2018-12-25T13:23:37.287Z,26.00
2018-12-25T13:26:04.830Z,20.63
2018-12-25T13:28:32.331Z,20.80
2018-12-25T13:31:00.065Z,21.80
2018-12-25T13:33:27.696Z,20.77
2018-12-25T13:35:55.189Z,22.40
2018-12-25T13:38:23.625Z,21.13
2018-12-25T13:40:51.319Z,22.23
2018-12-25T13:43:18.835Z,21.27
2018-12-25T13:45:46.393Z,20.17
2018-12-25T13:48:13.928Z,22.07
2018-12-25T13:50:41.430Z,21.80
2018-12-25T13:53:09.019Z,25.30
2018-12-25T13:55:36.542Z,22.13
2018-12-25T13:58:04.087Z,21.97
2018-12-25T14:00:31.623Z,20.93
2018-12-25T14:02:59.117Z,19.43
2018-12-25T14:05:26.684Z,21.63
2018-12-25T14:07:54.245Z,20.03
2018-12-25T14:10:21.757Z,21.47
2018-12-25T14:12:49.288Z,19.90
2018-12-25T14:15:16.897Z,20.40
2018-12-25T14:17:44.449Z,22.00
2018-12-25T14:20:11.969Z,20.13
2018-12-25T14:22:39.542Z,20.90
2018-12-25T14:25:07.182Z,19.90
2018-12-25T14:27:34.849Z,21.83
2018-12-25T14:30:02.590Z,21.90
2018-12-25T14:32:30.188Z,24.97
2018-12-25T14:35:00.252Z,22.17
2018-12-25T14:37:29.879Z,23.07
2018-12-25T14:39:57.394Z,23.57
2018-12-25T14:42:24.870Z,29.40
2018-12-25T14:44:52.435Z,23.67
2018-12-25T14:47:20.591Z,27.27
2018-12-25T14:49:48.108Z,27.20
2018-12-25T14:52:15.679Z,26.23
2018-12-25T14:54:43.193Z,29.10
2018-12-25T14:57:10.699Z,24.87
2018-12-25T14:59:38.231Z,25.40
2018-12-25T15:02:05.827Z,24.57
2018-12-25T15:04:33.345Z,30.70
2018-12-25T15:07:00.903Z,31.60
2018-12-25T15:09:28.399Z,29.10
2018-12-25T15:11:55.977Z,26.73
2018-12-25T15:14:23.521Z,28.00
2018-12-25T15:16:51.038Z,28.67
2018-12-25T15:19:18.625Z,36.77
2018-12-25T15:21:46.178Z,35.57
2018-12-25T15:24:13.694Z,38.40
2018-12-25T15:26:41.210Z,23.13
2018-12-25T15:29:08.746Z,32.73
2018-12-25T15:31:36.278Z,30.03
2018-12-25T15:34:03.855Z,35.03
2018-12-25T15:36:31.406Z,30.07
2018-12-25T15:38:58.914Z,26.10
2018-12-25T15:41:26.710Z,23.87
2018-12-25T15:43:54.245Z,30.50
2018-12-25T15:46:21.741Z,29.77
2018-12-25T15:48:49.429Z,30.30
2018-12-25T15:51:17.003Z,33.83
2018-12-25T15:53:44.524Z,32.80
2018-12-25T15:56:12.873Z,34.37
2018-12-25T15:58:40.407Z,42.57
2018-12-25T16:01:07.927Z,38.93
2018-12-25T16:03:35.518Z,28.10
2018-12-25T16:06:03.030Z,25.87
2018-12-25T16:08:30.568Z,22.47
2018-12-25T16:10:58.065Z,24.93
2018-12-25T16:13:28.360Z,21.70
2018-12-25T16:15:55.902Z,22.77
2018-12-25T16:18:23.404Z,22.37
2018-12-25T16:20:50.898Z,22.63
2018-12-25T16:23:18.415Z,27.40
2018-12-25T16:25:45.894Z,20.87
2018-12-25T16:28:13.394Z,21.23
2018-12-25T16:30:40.942Z,19.27
2018-12-25T16:33:08.506Z,20.03
2018-12-25T16:35:36.040Z,24.40
2018-12-25T16:38:03.538Z,21.17
2018-12-25T16:40:31.014Z,21.13
2018-12-25T16:42:58.583Z,18.60
2018-12-25T16:45:26.091Z,21.13
2018-12-25T16:47:53.682Z,20.10
2018-12-25T16:50:21.308Z,20.50
2018-12-25T16:52:48.796Z,22.27
2018-12-25T16:55:16.339Z,22.13
2018-12-25T16:57:43.918Z,19.70
2018-12-25T17:00:11.452Z,20.17
2018-12-25T17:02:38.988Z,21.80
2018-12-25T17:05:06.579Z,20.47
2018-12-25T17:07:34.092Z,23.40
2018-12-25T17:10:01.599Z,23.67
2018-12-25T17:12:29.210Z,23.67
2018-12-25T17:14:56.754Z,25.73
2018-12-25T17:17:24.276Z,23.03
2018-12-25T17:19:51.848Z,20.30
2018-12-25T17:22:20.361Z,22.07
2018-12-25T17:24:48.148Z,23.83
2018-12-25T17:27:15.698Z,26.13
2018-12-25T17:29:43.240Z,26.10
2018-12-25T17:32:10.764Z,29.10
2018-12-25T17:34:38.456Z,25.47
2018-12-25T17:37:05.987Z,28.20
2018-12-25T17:39:33.542Z,31.37
2018-12-25T17:42:01.106Z,27.27
2018-12-25T17:44:28.648Z,36.57
2018-12-25T17:46:56.185Z,33.83
2018-12-25T17:49:23.744Z,31.50
2018-12-25T17:51:51.300Z,26.43
2018-12-25T17:54:18.832Z,28.67
2018-12-25T17:56:46.422Z,25.33
2018-12-25T17:59:13.948Z,23.87
2018-12-25T18:01:42.946Z,25.20
2018-12-25T18:04:10.574Z,24.83
2018-12-25T18:06:38.536Z,25.30
2018-12-25T18:09:06.126Z,26.10
2018-12-25T18:11:33.756Z,27.27
2018-12-25T18:14:01.325Z,26.63
2018-12-25T18:16:30.076Z,21.60
2018-12-25T18:18:57.820Z,24.70
2018-12-25T18:21:25.358Z,28.40
2018-12-25T18:23:52.872Z,28.97
2018-12-25T18:26:20.606Z,27.97
2018-12-25T18:28:48.108Z,27.10
2018-12-25T18:31:15.626Z,29.00
2018-12-25T18:33:43.217Z,28.73
2018-12-25T18:36:10.750Z,29.93
2018-12-25T18:38:38.376Z,32.33
2018-12-25T18:41:06.339Z,39.30
2018-12-25T18:43:33.842Z,36.50
2018-12-25T18:46:01.349Z,28.77
2018-12-25T18:48:28.892Z,31.37
2018-12-25T18:50:56.468Z,31.30
2018-12-25T18:53:23.970Z,30.03
2018-12-25T18:55:51.548Z,29.47
2018-12-25T18:58:19.056Z,31.37
2018-12-25T19:00:46.690Z,32.27
2018-12-25T19:03:14.263Z,27.57
2018-12-25T19:05:41.812Z,27.67
2018-12-25T19:08:09.382Z,27.57
2018-12-25T19:10:36.990Z,26.27
2018-12-25T19:13:04.553Z,28.40
2018-12-25T19:15:33.528Z,25.17
2018-12-25T19:18:01.576Z,27.50
2018-12-25T19:20:29.237Z,30.50
2018-12-25T19:22:56.786Z,28.87
2018-12-25T19:25:24.348Z,29.03
2018-12-25T19:27:52.010Z,24.67
2018-12-25T19:30:22.002Z,24.03
2018-12-25T19:32:57.480Z,25.27
2018-12-25T19:35:25.044Z,23.13
2018-12-25T19:37:52.580Z,23.63
2018-12-25T19:40:20.248Z,23.90
2018-12-25T19:42:47.825Z,25.97
2018-12-25T19:45:15.554Z,18.90
2018-12-25T19:47:43.126Z,23.27
2018-12-25T19:50:10.670Z,24.60
2018-12-25T19:52:39.558Z,23.87
2018-12-25T19:55:07.160Z,23.97
2018-12-25T19:57:34.740Z,22.50
2018-12-25T20:00:02.278Z,23.43
2018-12-25T20:02:29.865Z,23.37
2018-12-25T20:05:42.150Z,26.43
2018-12-25T20:08:43.352Z,25.77
2018-12-25T20:11:51.808Z,21.27
2018-12-25T20:15:01.371Z,23.43
2018-12-25T20:18:00.150Z,20.87
2018-12-25T20:20:51.299Z,22.03
2018-12-25T20:23:51.630Z,24.63
2018-12-25T20:27:07.457Z,22.30
2018-12-25T20:30:13.239Z,23.87
2018-12-25T20:33:12.414Z,24.17
2018-12-25T20:36:20.350Z,22.80
2018-12-25T20:39:22.990Z,26.47
2018-12-25T20:42:31.136Z,21.50
2018-12-25T20:45:37.082Z,20.97
2018-12-25T20:48:39.993Z,19.33
2018-12-25T20:51:54.412Z,21.27
2018-12-25T20:54:48.314Z,21.07
2018-12-25T20:58:02.044Z,20.33
2018-12-25T21:01:21.271Z,20.33
2018-12-25T21:04:35.553Z,20.47
2018-12-25T21:07:45.342Z,20.53
2018-12-25T21:11:02.894Z,17.80
2018-12-25T21:14:10.510Z,15.70
2018-12-25T21:17:00.633Z,19.53
2018-12-25T21:20:15.351Z,16.33
2018-12-25T21:23:19.827Z,18.60
2018-12-25T21:26:24.317Z,19.57
2018-12-25T21:28:51.905Z,18.30
2018-12-25T21:31:19.943Z,12.07
2018-12-25T21:33:47.570Z,14.20
2018-12-25T21:36:15.287Z,18.90
2018-12-25T21:38:42.790Z,17.33
2018-12-25T21:41:11.536Z,18.17
2018-12-25T21:43:39.244Z,17.07
2018-12-25T21:46:06.746Z,15.77
2018-12-25T21:48:34.430Z,13.37
2018-12-25T21:51:01.957Z,14.83
2018-12-25T21:53:30.886Z,17.13
2018-12-25T21:55:59.064Z,17.00
2018-12-25T21:58:28.002Z,17.30
2018-12-25T22:00:56.375Z,15.90
2018-12-25T22:03:25.078Z,15.93
2018-12-25T22:05:52.568Z,15.13
2018-12-25T22:08:20.086Z,15.27
2018-12-25T22:10:48.304Z,13.73
2018-12-25T22:13:16.386Z,15.17
2018-12-25T22:15:44.354Z,14.63
2018-12-25T22:18:12.325Z,16.23
2018-12-25T22:20:39.866Z,16.23
2018-12-25T22:23:08.994Z,16.93
2018-12-25T22:25:37.941Z,15.53
2018-12-25T22:28:05.442Z,15.90
2018-12-25T22:30:33.650Z,14.57
2018-12-25T22:33:01.686Z,14.17
2018-12-25T22:35:40.456Z,14.67
2018-12-25T22:38:11.726Z,15.43
2018-12-25T22:40:39.230Z,14.37
2018-12-25T22:43:07.285Z,15.97
2018-12-25T22:45:34.839Z,15.17
2018-12-25T22:48:02.366Z,16.80
2018-12-25T22:50:32.246Z,15.27
2018-12-25T22:53:00.585Z,15.97
2018-12-25T22:55:35.855Z,15.90
2018-12-25T22:58:00.615Z,15.83
2018-12-25T23:00:30.674Z,15.77
2018-12-25T23:02:58.232Z,14.70
2018-12-25T23:05:26.834Z,13.20
2018-12-25T23:07:54.594Z,13.07
2018-12-25T23:10:22.728Z,15.43
2018-12-25T23:12:51.136Z,14.40
2018-12-25T23:15:19.932Z,15.70
2018-12-25T23:17:47.494Z,14.80
2018-12-25T23:20:15.394Z,14.43
2018-12-25T23:22:42.952Z,14.13
2018-12-25T23:25:10.925Z,15.23
2018-12-25T23:27:38.894Z,15.00
2018-12-25T23:30:09.700Z,15.20
2018-12-25T23:32:37.288Z,14.67
2018-12-25T23:35:04.824Z,15.43
2018-12-25T23:37:32.410Z,14.30
2018-12-25T23:39:59.934Z,14.30
2018-12-25T23:42:27.547Z,14.20
2018-12-25T23:44:55.100Z,15.37
2018-12-25T23:47:22.643Z,14.67
2018-12-25T23:49:50.172Z,14.23
2018-12-25T23:52:17.715Z,15.33
2018-12-25T23:54:45.225Z,16.60
2018-12-25T23:57:12.735Z,15.33
2018-12-25T23:59:40.350Z,14.93
